Time;durP1;ratioP1;P1;durP2;ratioP2;P2;SDS_P1;SDS_P2;PMS_P1;PMS_P2;Temp;Humidity;BMP_temperature;BMP_pressure;BME280_temperature;BME280_humidity;BME280_pressure;Samples;Min_cycle;Max_cycle;Signal;HPM_P1;HPM_P2
2023/09/07 00:01:00;;;;;;;12.00;6.20;;;;;;;17.18;100.00;100971.34;109543;1251;59306;-66
2023/09/07 00:03:47;;;;;;;13.30;5.80;;;;;;;17.18;100.00;100971.55;109463;1251;58834;-64
2023/09/07 00:06:34;;;;;;;9.70;5.20;;;;;;;17.18;100.00;100972.73;109605;1251;73273;-65
2023/09/07 00:09:22;;;;;;;11.80;5.90;;;;;;;17.19;100.00;100976.51;109449;1251;68861;-63
2023/09/07 00:12:08;;;;;;;12.10;5.50;;;;;;;17.21;100.00;100974.20;109303;1254;72485;-64
2023/09/07 00:14:55;;;;;;;10.90;5.60;;;;;;;17.22;100.00;100975.67;109427;1251;59231;-65
2023/09/07 00:17:42;;;;;;;12.70;6.10;;;;;;;17.22;100.00;100982.17;109363;1251;60883;-64
2023/09/07 00:20:29;;;;;;;12.10;6.00;;;;;;;17.22;100.00;100985.02;109362;1251;73486;-64
2023/09/07 00:23:16;;;;;;;12.80;6.40;;;;;;;17.23;100.00;100983.64;109294;1256;66763;-67
2023/09/07 00:26:02;;;;;;;14.40;6.80;;;;;;;17.25;100.00;100983.65;109352;1254;73592;-65
2023/09/07 00:28:49;;;;;;;11.20;5.80;;;;;;;17.26;100.00;100983.25;109528;1254;57939;-64
2023/09/07 00:31:35;;;;;;;13.50;6.50;;;;;;;17.26;100.00;100984.87;109503;1251;60464;-65
2023/09/07 00:34:22;;;;;;;14.00;6.90;;;;;;;17.24;100.00;100982.34;109388;1252;72785;-66
2023/09/07 00:37:09;;;;;;;15.60;6.90;;;;;;;17.23;100.00;100982.42;109603;1251;66667;-67
2023/09/07 00:39:55;;;;;;;13.10;6.20;;;;;;;17.21;100.00;100984.23;109585;1252;72272;-67
2023/09/07 00:42:42;;;;;;;11.30;6.20;;;;;;;17.19;100.00;100984.14;109496;1251;59463;-64
2023/09/07 00:45:29;;;;;;;11.80;6.50;;;;;;;17.20;100.00;100982.46;109405;1254;60152;-66
2023/09/07 00:48:16;;;;;;;11.30;6.50;;;;;;;17.22;100.00;100981.77;109374;1254;73029;-67
2023/09/07 00:51:03;;;;;;;14.00;7.30;;;;;;;17.25;100.00;100981.48;109599;1251;66705;-62
2023/09/07 00:53:50;;;;;;;14.60;8.10;;;;;;;17.27;100.00;100980.11;109542;1256;72574;-63
2023/09/07 00:56:36;;;;;;;21.30;9.50;;;;;;;17.28;100.00;100981.95;109640;1251;57293;-63
2023/09/07 00:59:23;;;;;;;18.70;8.80;;;;;;;17.30;100.00;100980.52;109463;1251;61650;-64
2023/09/07 01:02:09;;;;;;;17.10;9.10;;;;;;;17.34;100.00;100984.58;109589;1251;71710;-64
2023/09/07 01:04:56;;;;;;;17.80;8.80;;;;;;;17.37;100.00;100982.04;109291;1251;67638;-65
2023/09/07 01:07:54;;;;;;;18.90;8.70;;;;;;;17.38;100.00;100983.21;109275;1252;70535;-64
2023/09/07 01:10:40;;;;;;;17.20;8.50;;;;;;;17.39;100.00;100989.20;109334;1252;60480;-63
2023/09/07 01:13:27;;;;;;;16.60;8.80;;;;;;;17.40;100.00;100989.79;109271;1251;60276;-64
2023/09/07 01:16:13;;;;;;;17.00;8.70;;;;;;;17.42;100.00;100989.47;109401;1251;71820;-64
2023/09/07 01:19:01;;;;;;;15.10;8.70;;;;;;;17.44;100.00;100987.47;109402;1251;67876;-64
2023/09/07 01:21:48;;;;;;;15.90;8.70;;;;;;;17.47;100.00;100987.39;109561;1251;71254;-64
2023/09/07 01:24:38;;;;;;;16.30;9.30;;;;;;;17.45;100.00;100977.36;109440;1253;59568;-65
2023/09/07 01:27:25;;;;;;;15.50;8.10;;;;;;;17.54;100.00;100989.24;109331;1257;59144;-68
2023/09/07 01:30:11;;;;;;;19.70;9.80;;;;;;;17.59;100.00;100988.65;109602;1251;73060;-66
2023/09/07 01:32:57;;;;;;;18.30;8.90;;;;;;;17.63;100.00;100988.36;109417;1251;66401;-63
2023/09/07 01:35:45;;;;;;;17.90;8.70;;;;;;;17.66;100.00;100982.41;109384;1251;71914;-62
2023/09/07 01:38:31;;;;;;;19.60;9.90;;;;;;;17.71;100.00;100990.69;109442;1251;59277;-64
2023/09/07 01:41:18;;;;;;;19.50;9.90;;;;;;;17.76;100.00;100991.13;109600;1251;59037;-65
2023/09/07 01:44:05;;;;;;;17.40;9.40;;;;;;;17.80;100.00;100991.15;109265;1251;72607;-64
2023/09/07 01:46:51;;;;;;;19.90;10.00;;;;;;;17.83;100.00;100994.78;109568;1251;67656;-63
2023/09/07 01:49:37;;;;;;;22.70;11.00;;;;;;;17.85;100.00;100984.96;109602;1251;73579;-64
2023/09/07 01:52:24;;;;;;;20.40;9.60;;;;;;;17.92;100.00;100995.80;109604;1251;58250;-65
2023/09/07 01:55:10;;;;;;;19.10;10.40;;;;;;;17.95;100.00;100994.76;109579;1252;59117;-63
2023/09/07 01:57:57;;;;;;;19.20;10.20;;;;;;;17.99;100.00;100995.29;109200;1254;74134;-64
2023/09/07 02:00:43;;;;;;;16.40;9.70;;;;;;;18.01;100.00;100996.73;109314;1254;67607;-65
2023/09/07 02:03:30;;;;;;;18.10;9.70;;;;;;;17.99;100.00;100991.90;109167;1260;72445;-63
2023/09/07 02:06:16;;;;;;;18.20;9.70;;;;;;;18.04;100.00;100996.95;109187;1254;59486;-65
2023/09/07 02:09:04;;;;;;;15.90;9.10;;;;;;;18.08;100.00;100999.00;109361;1259;61319;-64
2023/09/07 02:11:50;;;;;;;16.00;9.70;;;;;;;18.08;100.00;100998.30;109255;1254;71766;-62
2023/09/07 02:14:37;;;;;;;16.90;9.80;;;;;;;18.09;100.00;101002.10;109375;1254;66596;-64
2023/09/07 02:17:23;;;;;;;15.70;9.10;;;;;;;18.09;100.00;101001.95;109151;1254;73068;-64
2023/09/07 02:20:11;;;;;;;18.50;9.70;;;;;;;18.08;100.00;101004.23;109264;1254;60385;-66
2023/09/07 02:22:59;;;;;;;19.20;9.30;;;;;;;18.08;100.00;101004.88;109194;1259;59983;-67
2023/09/07 02:25:46;;;;;;;15.10;8.20;;;;;;;18.09;100.00;101007.92;109241;1254;73533;-64
2023/09/07 02:28:32;;;;;;;17.60;8.80;;;;;;;18.05;100.00;101006.94;109193;1251;67678;-62
2023/09/07 02:31:20;;;;;;;15.90;8.50;;;;;;;18.00;100.00;101007.56;109452;1251;71525;-62
2023/09/07 02:34:07;;;;;;;14.60;8.40;;;;;;;17.97;100.00;101009.55;109549;1251;57402;-64
2023/09/07 02:36:54;;;;;;;15.80;8.50;;;;;;;17.93;100.00;101008.45;109543;1251;61201;-64
2023/09/07 02:39:40;;;;;;;14.50;8.70;;;;;;;17.87;100.00;101000.55;109592;1251;72752;-63
2023/09/07 02:42:27;;;;;;;14.60;8.50;;;;;;;17.84;100.00;101005.69;109622;1254;67611;-64
2023/09/07 02:45:14;;;;;;;13.90;8.50;;;;;;;17.80;100.00;101005.17;109635;1251;72585;-64
2023/09/07 02:48:01;;;;;;;25.10;14.80;;;;;;;17.75;100.00;101003.42;109468;1253;59461;-63
2023/09/07 02:50:50;;;;;;;16.10;9.00;;;;;;;17.69;100.00;100999.50;109485;1251;59405;-64
2023/09/07 02:53:36;;;;;;;15.60;9.00;;;;;;;17.66;100.00;101001.02;109581;1251;74226;-65
2023/09/07 02:56:23;;;;;;;15.50;9.00;;;;;;;17.61;100.00;101000.28;109593;1251;66550;-64
2023/09/07 02:59:09;;;;;;;15.30;8.70;;;;;;;17.59;100.00;100999.89;109376;1251;73873;-63
2023/09/07 03:01:56;;;;;;;16.70;9.40;;;;;;;17.57;100.00;100999.36;109596;1251;59329;-64
2023/09/07 03:04:42;;;;;;;17.30;10.20;;;;;;;17.56;100.00;100998.77;109654;1252;58999;-63
2023/09/07 03:07:34;;;;;;;16.00;9.10;;;;;;;17.52;100.00;100995.48;109445;1251;71515;-62
2023/09/07 03:10:20;;;;;;;17.00;9.40;;;;;;;17.48;100.00;100999.34;109335;1251;67613;-63
2023/09/07 03:13:08;;;;;;;17.50;9.50;;;;;;;17.44;100.00;100996.11;109568;1251;73373;-64
2023/09/07 03:15:55;;;;;;;15.10;9.10;;;;;;;17.42;100.00;100996.28;109454;1251;59962;-64
2023/09/07 03:18:42;;;;;;;15.40;9.00;;;;;;;17.40;100.00;100996.64;109579;1254;59493;-64
2023/09/07 03:21:29;;;;;;;16.00;9.30;;;;;;;17.37;100.00;100997.40;109499;1251;73087;-65
2023/09/07 03:24:16;;;;;;;14.80;9.40;;;;;;;17.35;100.00;100997.91;109537;1254;67607;-64
2023/09/07 03:27:03;;;;;;;18.50;9.20;;;;;;;17.35;100.00;100997.06;109461;1251;73963;-63
2023/09/07 03:29:51;;;;;;;15.70;9.50;;;;;;;17.34;100.00;100999.70;109459;1251;59741;-66
2023/09/07 03:32:38;;;;;;;16.60;8.70;;;;;;;17.31;100.00;100999.95;109319;1251;61250;-63
2023/09/07 03:35:26;;;;;;;14.90;9.00;;;;;;;17.27;100.00;101000.39;109353;1251;74007;-64
2023/09/07 03:38:12;;;;;;;16.40;8.80;;;;;;;17.23;100.00;100998.05;109643;1251;68317;-64
2023/09/07 03:40:58;;;;;;;14.90;9.00;;;;;;;17.17;100.00;101000.45;109452;1251;70896;-63
2023/09/07 03:43:45;;;;;;;16.50;8.90;;;;;;;17.16;100.00;101001.35;109434;1251;59429;-64
2023/09/07 03:46:31;;;;;;;17.30;8.60;;;;;;;17.07;100.00;101002.80;109583;1251;61203;-63
2023/09/07 03:49:17;;;;;;;14.70;8.30;;;;;;;17.06;100.00;101009.06;109429;1251;73761;-64
2023/09/07 03:52:05;;;;;;;16.10;8.50;;;;;;;17.02;100.00;101005.05;109556;1251;66957;-62
2023/09/07 03:54:55;;;;;;;14.90;8.70;;;;;;;17.00;100.00;101005.58;109389;1253;72682;-64
2023/09/07 03:57:42;;;;;;;15.90;7.70;;;;;;;17.04;100.00;101003.86;109587;1251;59281;-65
2023/09/07 04:00:30;;;;;;;16.80;8.60;;;;;;;17.06;100.00;101003.32;109351;1251;61205;-68
2023/09/07 04:03:16;;;;;;;13.90;7.30;;;;;;;17.07;100.00;101004.27;109564;1251;72522;-66
2023/09/07 04:06:04;;;;;;;13.30;6.80;;;;;;;17.08;100.00;101002.00;109485;1251;68717;-66
2023/09/07 04:08:50;;;;;;;13.30;6.70;;;;;;;17.10;100.00;101005.59;109484;1251;72579;-64
2023/09/07 04:11:37;;;;;;;13.50;6.70;;;;;;;17.13;100.00;101006.48;109515;1251;58018;-66
2023/09/07 04:14:23;;;;;;;12.90;6.70;;;;;;;17.15;100.00;101005.34;109448;1251;60244;-68
2023/09/07 04:17:10;;;;;;;14.30;6.50;;;;;;;17.19;100.00;101008.60;109453;1252;72293;-67
2023/09/07 04:19:57;;;;;;;13.90;6.40;;;;;;;17.22;100.00;101008.36;109476;1253;67760;-64
2023/09/07 04:22:43;;;;;;;13.50;6.50;;;;;;;17.23;100.00;101009.15;109560;1251;73496;-64
2023/09/07 04:25:29;;;;;;;12.10;6.20;;;;;;;17.27;100.00;101010.38;109469;1251;59220;-67
2023/09/07 04:28:17;;;;;;;16.10;6.70;;;;;;;17.29;100.00;101011.42;109472;1253;61100;-65
2023/09/07 04:31:06;;;;;;;16.20;6.80;;;;;;;17.31;100.00;101014.85;109367;1253;72854;-65
2023/09/07 04:33:53;;;;;;;11.50;5.90;;;;;;;17.33;100.00;101016.44;109279;1254;67890;-67
2023/09/07 04:36:39;;;;;;;14.00;6.60;;;;;;;17.34;100.00;101015.95;109032;1254;215552;-65
2023/09/07 04:39:26;;;;;;;11.20;5.20;;;;;;;17.35;100.00;101018.91;109148;1252;58164;-66
2023/09/07 04:42:12;;;;;;;10.60;5.90;;;;;;;17.35;100.00;101019.08;109294;1252;58753;-65
2023/09/07 04:44:59;;;;;;;11.40;6.20;;;;;;;17.36;100.00;101024.73;109426;1253;71454;-68
2023/09/07 04:47:45;;;;;;;10.80;5.70;;;;;;;17.39;100.00;101027.23;109412;1253;65503;-66
2023/09/07 04:50:32;;;;;;;12.50;6.10;;;;;;;17.42;100.00;101028.88;109313;1252;72502;-66
2023/09/07 04:53:18;;;;;;;14.60;6.30;;;;;;;17.46;100.00;101023.55;109207;1253;57568;-63
2023/09/07 04:56:07;;;;;;;13.70;5.70;;;;;;;17.48;100.00;101026.05;109303;1253;60410;-65
2023/09/07 04:58:54;;;;;;;11.80;6.30;;;;;;;17.49;100.00;101029.90;109352;1252;71782;-65
2023/09/07 05:01:40;;;;;;;12.40;5.70;;;;;;;17.51;100.00;101031.13;109320;1253;68848;-63
2023/09/07 05:04:27;;;;;;;11.30;6.20;;;;;;;17.52;100.00;101031.55;109469;1252;73397;-66
2023/09/07 05:07:14;;;;;;;12.60;6.00;;;;;;;17.55;100.00;101033.81;109371;1253;59395;-66
2023/09/07 05:10:00;;;;;;;16.20;5.90;;;;;;;17.56;100.00;101033.90;109485;1252;57782;-67
2023/09/07 05:12:47;;;;;;;10.90;6.20;;;;;;;17.57;100.00;101034.58;109321;1253;72908;-65
2023/09/07 05:15:33;;;;;;;11.80;6.30;;;;;;;17.59;100.00;101039.20;109223;1252;67760;-65
2023/09/07 05:18:21;;;;;;;12.10;5.60;;;;;;;17.62;100.00;101045.40;109358;1253;72413;-65
2023/09/07 05:21:14;;;;;;;11.90;6.00;;;;;;;17.65;100.00;101047.74;109323;1253;58270;-66
2023/09/07 05:24:02;;;;;;;10.60;5.40;;;;;;;17.66;100.00;101047.18;109359;1252;58791;-65
2023/09/07 05:26:49;;;;;;;14.50;6.00;;;;;;;17.68;100.00;101051.08;109364;1252;74050;-64
2023/09/07 05:29:35;;;;;;;12.20;5.60;;;;;;;17.72;100.00;101050.89;109199;1253;66656;-65
2023/09/07 05:32:22;;;;;;;11.10;5.80;;;;;;;17.79;100.00;101049.56;109246;1253;72820;-65
2023/09/07 05:35:10;;;;;;;15.10;6.20;;;;;;;17.83;100.00;101046.70;109357;1253;58259;-65
2023/09/07 05:37:56;;;;;;;11.00;5.50;;;;;;;17.87;100.00;101049.33;109463;1252;60064;-64
2023/09/07 05:40:44;;;;;;;12.10;5.60;;;;;;;17.92;100.00;101055.02;109280;1253;72096;-66
2023/09/07 05:43:31;;;;;;;9.60;5.00;;;;;;;17.94;100.00;101050.69;109307;1253;68744;-63
2023/09/07 05:46:18;;;;;;;10.40;5.10;;;;;;;17.96;100.00;101052.52;109414;1253;71595;-65
2023/09/07 05:49:04;;;;;;;11.90;5.20;;;;;;;18.00;100.00;101060.27;109191;1254;60563;-64
2023/09/07 05:51:51;;;;;;;10.50;5.50;;;;;;;18.05;100.00;101056.20;109388;1252;60077;-64
2023/09/07 05:54:37;;;;;;;12.50;5.10;;;;;;;18.10;100.00;101058.17;109485;1252;71856;-67
2023/09/07 05:57:24;;;;;;;12.20;5.60;;;;;;;18.15;100.00;101055.19;109481;1252;67769;-64
2023/09/07 06:00:13;;;;;;;12.50;5.50;;;;;;;18.21;100.00;101056.83;109422;1252;71914;-65
2023/09/07 06:03:03;;;;;;;11.30;5.40;;;;;;;18.28;100.00;101056.33;109502;1253;59474;-63
2023/09/07 06:05:49;;;;;;;8.70;4.50;;;;;;;18.34;100.00;101062.94;109507;1252;61175;-63
2023/09/07 06:08:36;;;;;;;12.90;5.20;;;;;;;18.40;100.00;101059.22;109379;1252;71388;-65
2023/09/07 06:11:23;;;;;;;9.30;4.90;;;;;;;18.44;100.00;101058.05;109480;1252;68862;-65
2023/09/07 06:14:09;;;;;;;9.30;5.20;;;;;;;18.50;100.00;101063.09;109355;1253;72753;-66
2023/09/07 06:16:56;;;;;;;11.40;5.50;;;;;;;18.58;100.00;101067.16;109383;1252;59362;-66
2023/09/07 06:19:43;;;;;;;12.40;4.90;;;;;;;18.67;100.00;101066.10;109417;1252;60402;-62
2023/09/07 06:22:30;;;;;;;13.20;5.30;;;;;;;18.74;100.00;101069.23;109489;1252;71494;-64
2023/09/07 06:25:16;;;;;;;12.00;6.00;;;;;;;18.80;99.61;101067.98;109491;1252;67870;-66
2023/09/07 06:28:04;;;;;;;10.80;5.50;;;;;;;18.85;98.95;101065.95;109272;1252;72427;-64
2023/09/07 06:30:50;;;;;;;11.50;5.30;;;;;;;18.87;98.22;101063.47;109381;1253;59451;-64
2023/09/07 06:33:37;;;;;;;11.10;5.10;;;;;;;18.92;98.56;101065.34;109379;1253;61159;-67
2023/09/07 06:36:24;;;;;;;9.80;5.20;;;;;;;18.98;98.35;101070.67;109430;1252;71686;-68
2023/09/07 06:39:30;;;;;;;13.30;5.90;;;;;;;19.08;97.89;101073.89;109379;1253;67768;-67
2023/09/07 06:42:17;;;;;;;10.80;5.30;;;;;;;19.19;97.60;101080.40;109448;1252;72592;-69
2023/09/07 06:45:07;;;;;;;12.30;5.30;;;;;;;19.34;96.98;101083.56;109203;1252;59011;-65
2023/09/07 06:47:53;;;;;;;11.40;5.10;;;;;;;19.43;95.18;101085.92;109397;1252;60470;-68
2023/09/07 06:50:42;;;;;;;10.40;5.30;;;;;;;19.52;94.56;101087.67;109540;1252;71962;-67
2023/09/07 06:53:28;;;;;;;12.70;5.40;;;;;;;19.64;93.89;101086.66;109425;1253;68765;-67
2023/09/07 06:56:35;;;;;;;13.40;5.30;;;;;;;19.74;93.17;101087.31;109257;1253;72633;-68
2023/09/07 06:59:21;;;;;;;11.60;5.10;;;;;;;19.87;92.02;101088.27;109378;1252;60528;-63
2023/09/07 07:02:08;;;;;;;9.70;5.20;;;;;;;20.18;91.23;101090.90;109405;1253;60339;-69
2023/09/07 07:04:54;;;;;;;13.70;4.80;;;;;;;20.45;89.03;101090.39;109540;1252;73049;-67
2023/09/07 07:07:41;;;;;;;11.70;4.90;;;;;;;20.76;87.55;101094.95;109454;1252;67664;-64
2023/09/07 07:10:27;;;;;;;9.70;4.60;;;;;;;20.93;86.17;101094.70;109382;1253;72494;-66
2023/09/07 07:13:14;;;;;;;10.40;5.40;;;;;;;21.02;85.69;101098.05;109365;1253;57315;-64
2023/09/07 07:16:00;;;;;;;10.00;4.50;;;;;;;21.16;84.96;101093.65;109372;1252;60187;-67
2023/09/07 07:18:47;;;;;;;12.40;4.70;;;;;;;21.48;84.49;101094.81;109407;1252;72948;-65
2023/09/07 07:21:35;;;;;;;12.20;4.70;;;;;;;21.73;82.59;101094.06;109401;1252;67796;-69
2023/09/07 07:24:21;;;;;;;8.00;4.20;;;;;;;21.83;81.29;101091.21;109413;1252;72659;-67
2023/09/07 07:27:07;;;;;;;11.20;4.80;;;;;;;21.81;80.28;101093.80;109570;1252;57843;-67
2023/09/07 07:29:55;;;;;;;10.70;4.70;;;;;;;21.84;80.73;101096.69;109323;1253;60272;-66
2023/09/07 07:32:41;;;;;;;12.40;4.40;;;;;;;22.04;80.31;101104.63;109483;1252;72893;-67
2023/09/07 07:35:28;;;;;;;10.60;5.00;;;;;;;22.34;78.52;101108.17;109442;1253;66546;-67
2023/09/07 07:38:14;;;;;;;14.00;4.40;;;;;;;22.94;76.95;101107.66;109480;1252;72495;-66
2023/09/07 07:41:03;;;;;;;12.80;5.20;;;;;;;23.22;74.29;101108.48;109362;1253;57437;-65
2023/09/07 07:43:50;;;;;;;8.30;4.20;;;;;;;24.66;70.96;101099.54;109388;1253;60249;-67
2023/09/07 07:46:36;;;;;;;14.00;5.20;;;;;;;24.82;67.19;101103.73;109351;1253;73016;-67
2023/09/07 07:49:22;;;;;;;11.60;5.30;;;;;;;25.02;65.48;101106.22;109269;1252;67963;-66
2023/09/07 07:52:09;;;;;;;11.40;4.30;;;;;;;25.49;65.52;101104.22;109196;1252;72464;-67
2023/09/07 07:54:56;;;;;;;10.80;4.80;;;;;;;26.08;63.16;101097.60;109344;1252;59040;-68
2023/09/07 07:57:43;;;;;;;11.10;4.40;;;;;;;26.28;61.80;101109.42;109304;1252;58924;-66
2023/09/07 08:00:31;;;;;;;10.10;4.30;;;;;;;27.37;59.33;101105.71;109416;1253;74055;-65
2023/09/07 08:03:17;;;;;;;9.80;3.90;;;;;;;28.74;55.18;101101.34;109249;1253;68694;-66
2023/09/07 08:06:04;;;;;;;9.30;3.80;;;;;;;29.91;50.33;101101.68;109373;1253;72758;-66
2023/09/07 08:08:50;;;;;;;9.00;3.20;;;;;;;30.94;46.45;101099.11;109380;1255;57372;-68
2023/09/07 08:11:39;;;;;;;11.40;3.40;;;;;;;31.83;44.14;101105.37;109494;1252;58716;-66
2023/09/07 08:14:27;;;;;;;8.20;3.60;;;;;;;32.52;41.57;101097.02;109377;1253;72795;-67
2023/09/07 08:17:16;;;;;;;9.10;3.30;;;;;;;33.18;40.10;101098.57;109545;1252;66587;-68
2023/09/07 08:20:03;;;;;;;10.90;3.50;;;;;;;33.73;38.97;101098.84;109361;1253;72518;-67
2023/09/07 08:22:49;;;;;;;8.00;3.30;;;;;;;34.37;37.38;101094.71;109360;1253;58256;-65
2023/09/07 08:25:36;;;;;;;7.20;3.20;;;;;;;34.94;35.95;101094.55;109278;1252;59978;-64
2023/09/07 08:28:22;;;;;;;9.90;3.40;;;;;;;35.37;34.85;101098.28;109392;1252;72947;-69
2023/09/07 08:31:10;;;;;;;8.00;2.70;;;;;;;35.61;34.13;101100.05;109544;1252;68549;-67
2023/09/07 08:33:57;;;;;;;7.90;2.80;;;;;;;35.93;33.52;101098.77;109200;1252;72630;-66
2023/09/07 08:36:43;;;;;;;8.50;2.90;;;;;;;36.05;32.44;101093.83;109382;1253;57261;-65
2023/09/07 08:39:30;;;;;;;9.10;2.80;;;;;;;36.32;32.54;101093.91;109381;1253;60335;-68
2023/09/07 08:42:17;;;;;;;8.70;2.50;;;;;;;36.47;31.79;101088.90;109452;1252;71592;-67
2023/09/07 08:45:07;;;;;;;8.60;2.70;;;;;;;36.63;31.26;101086.83;109474;1252;67872;-69
2023/09/07 08:47:55;;;;;;;8.00;2.80;;;;;;;36.78;30.90;101086.48;109201;1253;72858;-68
2023/09/07 08:50:42;;;;;;;7.00;2.60;;;;;;;36.74;30.51;101086.79;109407;1252;58010;-66
2023/09/07 08:53:31;;;;;;;9.20;2.70;;;;;;;36.94;30.74;101088.27;109448;1252;60068;-66
2023/09/07 08:56:17;;;;;;;7.00;2.90;;;;;;;37.07;29.85;101091.13;109389;1252;73782;-66
2023/09/07 08:59:04;;;;;;;8.30;3.00;;;;;;;37.16;29.79;101096.98;109461;1253;67900;-68
2023/09/07 09:01:58;;;;;;;10.50;2.80;;;;;;;37.23;29.78;101098.16;109365;1252;73716;-66
2023/09/07 09:04:44;;;;;;;9.90;2.70;;;;;;;37.29;29.40;101093.05;109460;1252;57675;-66
2023/09/07 09:07:31;;;;;;;8.70;2.90;;;;;;;37.39;29.71;101091.63;109511;1252;60172;-64
2023/09/07 09:10:17;;;;;;;8.40;2.80;;;;;;;37.55;29.19;101092.02;109472;1253;71611;-68
2023/09/07 09:13:04;;;;;;;8.00;2.70;;;;;;;37.66;28.69;101091.16;109398;1252;67708;-64
2023/09/07 09:15:50;;;;;;;10.70;3.00;;;;;;;37.61;28.63;101083.88;109330;1252;73794;-65
2023/09/07 09:18:37;;;;;;;7.70;2.70;;;;;;;37.52;28.68;101084.49;109232;1253;57795;-65
2023/09/07 09:21:26;;;;;;;7.10;2.40;;;;;;;37.34;28.64;101084.07;109470;1252;60087;-65
2023/09/07 09:24:14;;;;;;;7.80;3.10;;;;;;;37.38;28.48;101082.45;109352;1252;73827;-65
2023/09/07 09:27:01;;;;;;;7.60;2.50;;;;;;;37.43;28.59;101078.59;109356;1252;67660;-66
2023/09/07 09:29:50;;;;;;;8.00;3.00;;;;;;;37.46;28.37;101076.77;109229;1253;73675;-69
2023/09/07 09:32:36;;;;;;;8.40;3.10;;;;;;;37.47;28.23;101077.77;109425;1252;58288;-64
2023/09/07 09:35:23;;;;;;;8.20;2.80;;;;;;;37.47;28.39;101075.05;109486;1252;59482;-67
2023/09/07 09:38:10;;;;;;;11.20;3.40;;;;;;;37.54;28.24;101070.44;109341;1253;72972;-67
2023/09/07 09:40:56;;;;;;;9.40;3.10;;;;;;;37.56;28.23;101064.22;109272;1252;67916;-66
2023/09/07 09:43:44;;;;;;;10.20;3.00;;;;;;;37.51;28.05;101067.05;109318;1253;72523;-68
2023/09/07 09:46:32;;;;;;;8.00;2.50;;;;;;;37.50;27.84;101065.45;109469;1252;57842;-67
2023/09/07 09:49:21;;;;;;;8.40;3.30;;;;;;;37.66;27.94;101072.11;109481;1252;58763;-67
2023/09/07 09:52:08;;;;;;;10.00;3.60;;;;;;;37.78;27.70;101069.75;109385;1252;70940;-69
2023/09/07 09:54:55;;;;;;;7.60;2.50;;;;;;;38.00;27.37;101070.08;109369;1253;68170;-68
2023/09/07 09:57:42;;;;;;;7.40;2.70;;;;;;;38.24;27.11;101065.71;109333;1252;71155;-66
2023/09/07 10:00:30;;;;;;;7.50;2.60;;;;;;;38.34;26.77;101067.47;109472;1252;58486;-65
2023/09/07 10:03:32;;;;;;;7.60;2.50;;;;;;;38.29;26.66;101069.66;109453;1252;60438;-68
2023/09/07 10:06:29;;;;;;;9.80;2.50;;;;;;;38.39;26.84;101072.62;109518;1252;71742;-67
2023/09/07 10:09:18;;;;;;;7.90;2.50;;;;;;;38.45;26.40;101071.55;109404;1252;66489;-67
2023/09/07 10:12:08;;;;;;;7.70;2.60;;;;;;;38.59;26.21;101073.77;109232;1253;73649;-66
2023/09/07 10:14:55;;;;;;;8.30;2.50;;;;;;;38.69;26.13;101069.65;109373;1253;57371;-68
2023/09/07 10:17:42;;;;;;;9.20;2.70;;;;;;;38.74;26.15;101065.52;109327;1252;60321;-67
2023/09/07 10:20:28;;;;;;;8.40;2.90;;;;;;;38.79;26.11;101062.66;109468;1252;72883;-65
2023/09/07 10:23:14;;;;;;;7.40;2.50;;;;;;;38.87;25.96;101054.95;109506;1252;66618;-67
2023/09/07 10:26:06;;;;;;;7.60;2.50;;;;;;;38.79;25.80;101058.77;109249;1253;72524;-65
2023/09/07 10:29:02;;;;;;;8.60;2.70;;;;;;;38.48;26.20;101057.30;109487;1252;57371;-69
2023/09/07 10:31:52;;;;;;;7.00;2.60;;;;;;;38.22;26.58;101059.82;109348;1254;61345;-67
2023/09/07 10:34:43;;;;;;;7.40;2.80;;;;;;;37.83;26.57;101058.19;109498;1252;71692;-66
2023/09/07 10:37:29;;;;;;;8.50;2.90;;;;;;;37.53;27.17;101049.08;109461;1252;67968;-69
2023/09/07 10:40:22;;;;;;;8.80;2.70;;;;;;;37.12;27.53;101044.66;109482;1252;72462;-66
2023/09/07 10:43:09;;;;;;;7.10;2.60;;;;;;;36.77;27.85;101046.27;109345;1252;57758;-67
2023/09/07 10:45:56;;;;;;;8.20;3.10;;;;;;;36.57;28.09;101045.00;109497;1252;60391;-65
2023/09/07 10:48:42;;;;;;;6.90;2.40;;;;;;;36.30;28.42;101042.42;109496;1252;73042;-66
2023/09/07 10:51:29;;;;;;;7.40;2.60;;;;;;;36.40;28.78;101044.65;109254;1253;67900;-65
2023/09/07 10:54:23;;;;;;;7.80;3.10;;;;;;;36.64;28.63;101042.59;109495;1252;72808;-68
2023/09/07 10:57:13;;;;;;;8.90;3.10;;;;;;;36.81;28.50;101037.58;109516;1252;57548;-67
2023/09/07 10:59:59;;;;;;;6.90;2.50;;;;;;;36.75;28.06;101042.38;109283;1253;60492;-66
2023/09/07 11:02:45;;;;;;;7.30;2.70;;;;;;;36.60;28.48;101040.42;109494;1252;72933;-65
2023/09/07 11:05:32;;;;;;;8.40;3.10;;;;;;;36.51;28.64;101042.48;109360;1253;67669;-66
2023/09/07 11:08:19;;;;;;;8.10;2.60;;;;;;;36.26;28.73;101044.77;109346;1253;72509;-66
2023/09/07 11:11:06;;;;;;;7.40;2.60;;;;;;;36.18;29.10;101047.94;109464;1252;57334;-64
2023/09/07 11:13:53;;;;;;;7.90;2.70;;;;;;;36.08;28.93;101048.52;109386;1252;60323;-68
2023/09/07 11:16:41;;;;;;;7.60;2.50;;;;;;;35.93;29.34;101049.64;109532;1252;72905;-68
2023/09/07 11:19:27;;;;;;;7.00;2.50;;;;;;;35.60;29.57;101052.12;109540;1252;67966;-66
2023/09/07 11:22:15;;;;;;;7.60;2.50;;;;;;;35.24;30.08;101053.35;109444;1253;72574;-67
2023/09/07 11:25:02;;;;;;;7.30;2.80;;;;;;;34.96;30.24;101050.23;109466;1253;57926;-67
2023/09/07 11:27:52;;;;;;;8.10;2.60;;;;;;;34.67;30.75;101042.30;109561;1252;58861;-67
2023/09/07 11:30:51;;;;;;;8.80;2.90;;;;;;;34.41;31.96;101037.31;109305;1253;71271;-67
2023/09/07 11:33:38;;;;;;;8.80;3.10;;;;;;;34.15;32.39;101040.56;109348;1253;68764;-65
2023/09/07 11:36:25;;;;;;;8.40;3.00;;;;;;;33.97;32.62;101040.80;109483;1252;73697;-67
2023/09/07 11:39:12;;;;;;;9.10;3.20;;;;;;;33.85;32.62;101038.52;109241;1253;58054;-65
2023/09/07 11:41:58;;;;;;;7.50;3.30;;;;;;;33.62;32.59;101035.50;109346;1253;60168;-66
2023/09/07 11:44:44;;;;;;;10.80;2.80;;;;;;;33.37;33.35;101038.40;109310;1252;71763;-66
2023/09/07 11:47:31;;;;;;;7.60;2.80;;;;;;;33.10;33.78;101043.20;109521;1252;68825;-66
2023/09/07 11:50:18;;;;;;;9.30;2.60;;;;;;;32.72;34.40;101037.01;109520;1252;71364;-65
2023/09/07 11:53:05;;;;;;;9.80;2.80;;;;;;;32.34;35.27;101034.62;109618;1252;57281;-66
2023/09/07 11:55:51;;;;;;;7.40;2.60;;;;;;;31.88;35.55;101037.11;109417;1253;59032;-66
2023/09/07 11:58:37;;;;;;;8.60;2.90;;;;;;;31.47;35.81;101032.27;109586;1252;73224;-67
2023/09/07 12:01:24;;;;;;;7.70;3.00;;;;;;;31.05;36.67;101030.20;109249;1253;66794;-67
2023/09/07 12:04:11;;;;;;;12.00;3.60;;;;;;;30.92;37.43;101028.84;109240;1253;71050;-67
2023/09/07 12:06:57;;;;;;;9.30;3.00;;;;;;;30.77;38.00;101033.48;109374;1253;57745;-64
2023/09/07 12:09:43;;;;;;;9.10;2.90;;;;;;;30.41;38.30;101031.55;109473;1252;60049;-67
2023/09/07 12:12:29;;;;;;;7.80;2.90;;;;;;;29.92;39.82;101027.75;109243;1253;72880;-70
2023/09/07 12:15:23;;;;;;;8.40;3.00;;;;;;;29.53;41.23;101029.75;109401;1253;68292;-65
2023/09/07 12:18:10;;;;;;;8.10;2.70;;;;;;;29.16;42.11;101034.15;109483;1252;72209;-65
2023/09/07 12:20:56;;;;;;;9.40;2.80;;;;;;;28.80;42.80;101035.04;109432;1253;57832;-66
2023/09/07 12:23:43;;;;;;;9.90;3.10;;;;;;;28.33;44.01;101026.43;109371;1252;60286;-68
2023/09/07 12:26:29;;;;;;;7.80;3.10;;;;;;;27.95;45.30;101026.67;109485;1252;73833;-65
2023/09/07 12:29:16;;;;;;;7.80;3.20;;;;;;;27.51;46.27;101029.05;109452;1252;66698;-67
2023/09/07 12:32:04;;;;;;;8.10;3.30;;;;;;;27.15;47.70;101030.00;109449;1252;72675;-67
2023/09/07 12:34:53;;;;;;;8.10;3.20;;;;;;;26.77;49.01;101035.01;109199;1253;57414;-66
2023/09/07 12:37:39;;;;;;;9.60;3.60;;;;;;;26.47;50.11;101033.40;109518;1253;59172;-65